sensor_id;sensor_type;location;lat;lon;timestamp;P1;durP1;ratioP1;P2;durP2;ratioP2
43744;SDS011;29359;53.048;8.732;2023-09-18T00:01:17;6.97;;;6.38;;
43744;SDS011;29359;53.048;8.732;2023-09-18T00:03:21;7.63;;;6.90;;
43744;SDS011;29359;53.048;8.732;2023-09-18T00:05:26;6.47;;;6.00;;
43744;SDS011;29359;53.048;8.732;2023-09-18T00:07:28;8.55;;;6.80;;
43744;SDS011;29359;53.048;8.732;2023-09-18T00:09:30;11.48;;;7.07;;
43744;SDS011;29359;53.048;8.732;2023-09-18T00:11:31;6.97;;;6.38;;
43744;SDS011;29359;53.048;8.732;2023-09-18T00:13:33;7.07;;;6.53;;
43744;SDS011;29359;53.048;8.732;2023-09-18T00:15:35;7.43;;;6.82;;
43744;SDS011;29359;53.048;8.732;2023-09-18T00:17:38;9.15;;;6.75;;
43744;SDS011;29359;53.048;8.732;2023-09-18T00:19:40;7.75;;;6.25;;
43744;SDS011;29359;53.048;8.732;2023-09-18T00:21:42;8.93;;;6.55;;
43744;SDS011;29359;53.048;8.732;2023-09-18T00:23:44;7.60;;;6.95;;
43744;SDS011;29359;53.048;8.732;2023-09-18T00:25:47;7.10;;;6.47;;
43744;SDS011;29359;53.048;8.732;2023-09-18T00:27:49;7.63;;;6.32;;
43744;SDS011;29359;53.048;8.732;2023-09-18T00:29:53;7.55;;;6.85;;
43744;SDS011;29359;53.048;8.732;2023-09-18T00:31:55;6.90;;;6.35;;
43744;SDS011;29359;53.048;8.732;2023-09-18T00:33:57;6.85;;;6.35;;
43744;SDS011;29359;53.048;8.732;2023-09-18T00:35:58;7.50;;;6.57;;
43744;SDS011;29359;53.048;8.732;2023-09-18T00:38:00;6.95;;;6.45;;
43744;SDS011;29359;53.048;8.732;2023-09-18T00:40:05;7.35;;;6.68;;
43744;SDS011;29359;53.048;8.732;2023-09-18T00:42:08;8.80;;;6.70;;
43744;SDS011;29359;53.048;8.732;2023-09-18T00:44:15;7.10;;;6.30;;
43744;SDS011;29359;53.048;8.732;2023-09-18T00:46:16;7.38;;;6.40;;
43744;SDS011;29359;53.048;8.732;2023-09-18T00:48:18;8.07;;;6.68;;
43744;SDS011;29359;53.048;8.732;2023-09-18T00:50:20;7.00;;;6.38;;
43744;SDS011;29359;53.048;8.732;2023-09-18T00:52:23;6.55;;;5.85;;
43744;SDS011;29359;53.048;8.732;2023-09-18T00:54:26;6.63;;;6.00;;
43744;SDS011;29359;53.048;8.732;2023-09-18T00:56:28;7.22;;;6.63;;
43744;SDS011;29359;53.048;8.732;2023-09-18T00:58:29;7.20;;;6.50;;
43744;SDS011;29359;53.048;8.732;2023-09-18T01:00:32;8.50;;;7.00;;
43744;SDS011;29359;53.048;8.732;2023-09-18T01:02:33;6.82;;;6.22;;
43744;SDS011;29359;53.048;8.732;2023-09-18T01:04:36;7.05;;;6.50;;
43744;SDS011;29359;53.048;8.732;2023-09-18T01:06:39;9.20;;;6.88;;
43744;SDS011;29359;53.048;8.732;2023-09-18T01:08:40;10.15;;;6.10;;
43744;SDS011;29359;53.048;8.732;2023-09-18T01:11:21;8.00;;;7.30;;
43744;SDS011;29359;53.048;8.732;2023-09-18T01:13:42;6.65;;;6.10;;
43744;SDS011;29359;53.048;8.732;2023-09-18T01:15:52;12.98;;;6.22;;
43744;SDS011;29359;53.048;8.732;2023-09-18T01:17:59;9.30;;;6.10;;
43744;SDS011;29359;53.048;8.732;2023-09-18T01:20:01;6.63;;;6.15;;
43744;SDS011;29359;53.048;8.732;2023-09-18T01:22:03;6.85;;;6.25;;
43744;SDS011;29359;53.048;8.732;2023-09-18T01:24:06;7.43;;;6.72;;
43744;SDS011;29359;53.048;8.732;2023-09-18T01:26:08;10.15;;;6.53;;
43744;SDS011;29359;53.048;8.732;2023-09-18T01:28:10;7.20;;;6.47;;
43744;SDS011;29359;53.048;8.732;2023-09-18T01:30:12;7.03;;;6.43;;
43744;SDS011;29359;53.048;8.732;2023-09-18T01:32:15;9.85;;;6.22;;
43744;SDS011;29359;53.048;8.732;2023-09-18T01:34:20;7.50;;;6.78;;
43744;SDS011;29359;53.048;8.732;2023-09-18T01:36:26;8.30;;;6.28;;
43744;SDS011;29359;53.048;8.732;2023-09-18T01:38:29;7.22;;;6.40;;
43744;SDS011;29359;53.048;8.732;2023-09-18T01:40:31;7.85;;;6.63;;
43744;SDS011;29359;53.048;8.732;2023-09-18T01:42:34;8.00;;;6.80;;
43744;SDS011;29359;53.048;8.732;2023-09-18T01:44:36;9.43;;;6.95;;
43744;SDS011;29359;53.048;8.732;2023-09-18T01:46:42;8.95;;;6.22;;
43744;SDS011;29359;53.048;8.732;2023-09-18T01:48:46;8.60;;;6.25;;
43744;SDS011;29359;53.048;8.732;2023-09-18T01:50:48;14.25;;;6.75;;
43744;SDS011;29359;53.048;8.732;2023-09-18T01:52:50;7.78;;;6.97;;
43744;SDS011;29359;53.048;8.732;2023-09-18T01:54:52;8.23;;;6.25;;
43744;SDS011;29359;53.048;8.732;2023-09-18T01:56:54;7.97;;;6.80;;
43744;SDS011;29359;53.048;8.732;2023-09-18T01:58:55;7.00;;;6.50;;
43744;SDS011;29359;53.048;8.732;2023-09-18T02:01:00;9.73;;;7.07;;
43744;SDS011;29359;53.048;8.732;2023-09-18T02:03:03;7.72;;;6.90;;
43744;SDS011;29359;53.048;8.732;2023-09-18T02:05:25;7.28;;;6.68;;
43744;SDS011;29359;53.048;8.732;2023-09-18T02:07:27;7.72;;;6.53;;
43744;SDS011;29359;53.048;8.732;2023-09-18T02:09:29;9.50;;;6.65;;
43744;SDS011;29359;53.048;8.732;2023-09-18T02:11:31;6.88;;;6.28;;
43744;SDS011;29359;53.048;8.732;2023-09-18T02:13:33;7.15;;;6.45;;
43744;SDS011;29359;53.048;8.732;2023-09-18T02:15:36;7.20;;;6.30;;
43744;SDS011;29359;53.048;8.732;2023-09-18T02:17:38;7.10;;;6.40;;
43744;SDS011;29359;53.048;8.732;2023-09-18T02:19:40;7.50;;;6.80;;
43744;SDS011;29359;53.048;8.732;2023-09-18T02:21:42;7.47;;;6.47;;
43744;SDS011;29359;53.048;8.732;2023-09-18T02:23:44;7.25;;;6.55;;
43744;SDS011;29359;53.048;8.732;2023-09-18T02:25:46;7.20;;;6.45;;
43744;SDS011;29359;53.048;8.732;2023-09-18T02:27:48;8.77;;;6.45;;
43744;SDS011;29359;53.048;8.732;2023-09-18T02:29:51;8.30;;;6.88;;
43744;SDS011;29359;53.048;8.732;2023-09-18T02:31:55;7.38;;;6.72;;
43744;SDS011;29359;53.048;8.732;2023-09-18T02:33:56;6.85;;;6.25;;
43744;SDS011;29359;53.048;8.732;2023-09-18T02:35:58;7.45;;;6.75;;
43744;SDS011;29359;53.048;8.732;2023-09-18T02:38:00;7.65;;;6.90;;
43744;SDS011;29359;53.048;8.732;2023-09-18T02:40:04;7.68;;;6.32;;
43744;SDS011;29359;53.048;8.732;2023-09-18T02:42:06;6.72;;;6.10;;
43744;SDS011;29359;53.048;8.732;2023-09-18T02:44:08;7.38;;;6.82;;
43744;SDS011;29359;53.048;8.732;2023-09-18T02:46:10;7.60;;;6.90;;
43744;SDS011;29359;53.048;8.732;2023-09-18T02:48:12;7.60;;;6.30;;
43744;SDS011;29359;53.048;8.732;2023-09-18T02:50:14;7.80;;;6.35;;
43744;SDS011;29359;53.048;8.732;2023-09-18T02:52:16;7.30;;;6.43;;
43744;SDS011;29359;53.048;8.732;2023-09-18T02:54:17;7.70;;;6.75;;
43744;SDS011;29359;53.048;8.732;2023-09-18T02:56:19;11.80;;;6.93;;
43744;SDS011;29359;53.048;8.732;2023-09-18T02:58:21;7.70;;;6.15;;
43744;SDS011;29359;53.048;8.732;2023-09-18T03:00:26;6.97;;;6.28;;
43744;SDS011;29359;53.048;8.732;2023-09-18T03:02:44;7.47;;;6.78;;
43744;SDS011;29359;53.048;8.732;2023-09-18T03:04:46;7.68;;;5.90;;
43744;SDS011;29359;53.048;8.732;2023-09-18T03:06:47;7.25;;;6.35;;
43744;SDS011;29359;53.048;8.732;2023-09-18T03:08:50;7.00;;;6.35;;
43744;SDS011;29359;53.048;8.732;2023-09-18T03:10:52;7.90;;;6.70;;
43744;SDS011;29359;53.048;8.732;2023-09-18T03:12:53;6.80;;;6.20;;
43744;SDS011;29359;53.048;8.732;2023-09-18T03:14:55;7.22;;;6.18;;
43744;SDS011;29359;53.048;8.732;2023-09-18T03:16:57;12.95;;;6.25;;
43744;SDS011;29359;53.048;8.732;2023-09-18T03:18:59;12.10;;;6.13;;
43744;SDS011;29359;53.048;8.732;2023-09-18T03:21:01;6.13;;;5.72;;
43744;SDS011;29359;53.048;8.732;2023-09-18T03:23:03;6.40;;;5.80;;
43744;SDS011;29359;53.048;8.732;2023-09-18T03:25:05;8.38;;;6.28;;
43744;SDS011;29359;53.048;8.732;2023-09-18T03:27:07;8.32;;;6.18;;
43744;SDS011;29359;53.048;8.732;2023-09-18T03:29:09;6.50;;;5.90;;
43744;SDS011;29359;53.048;8.732;2023-09-18T03:31:10;6.28;;;5.75;;
43744;SDS011;29359;53.048;8.732;2023-09-18T03:33:12;6.25;;;5.75;;
43744;SDS011;29359;53.048;8.732;2023-09-18T03:35:14;6.72;;;6.10;;
43744;SDS011;29359;53.048;8.732;2023-09-18T03:37:20;6.65;;;5.95;;
43744;SDS011;29359;53.048;8.732;2023-09-18T03:39:22;8.85;;;6.38;;
43744;SDS011;29359;53.048;8.732;2023-09-18T03:41:24;7.57;;;6.60;;
43744;SDS011;29359;53.048;8.732;2023-09-18T03:43:25;7.57;;;6.55;;
43744;SDS011;29359;53.048;8.732;2023-09-18T03:45:27;8.18;;;5.68;;
43744;SDS011;29359;53.048;8.732;2023-09-18T03:47:29;7.68;;;5.95;;
43744;SDS011;29359;53.048;8.732;2023-09-18T03:49:31;6.30;;;5.70;;
43744;SDS011;29359;53.048;8.732;2023-09-18T03:51:33;6.30;;;5.80;;
43744;SDS011;29359;53.048;8.732;2023-09-18T03:53:35;6.45;;;5.85;;
43744;SDS011;29359;53.048;8.732;2023-09-18T03:55:37;6.03;;;5.60;;
43744;SDS011;29359;53.048;8.732;2023-09-18T03:57:39;6.38;;;5.70;;
43744;SDS011;29359;53.048;8.732;2023-09-18T03:59:43;6.40;;;5.80;;
43744;SDS011;29359;53.048;8.732;2023-09-18T04:01:45;9.68;;;5.90;;
43744;SDS011;29359;53.048;8.732;2023-09-18T04:03:47;8.35;;;5.85;;
43744;SDS011;29359;53.048;8.732;2023-09-18T04:05:48;6.40;;;5.90;;
43744;SDS011;29359;53.048;8.732;2023-09-18T04:07:50;6.78;;;5.93;;
43744;SDS011;29359;53.048;8.732;2023-09-18T04:09:52;5.95;;;5.35;;
43744;SDS011;29359;53.048;8.732;2023-09-18T04:11:54;6.13;;;4.97;;
43744;SDS011;29359;53.048;8.732;2023-09-18T04:13:56;6.65;;;5.43;;
43744;SDS011;29359;53.048;8.732;2023-09-18T04:15:58;6.60;;;5.72;;
43744;SDS011;29359;53.048;8.732;2023-09-18T04:18:02;5.78;;;5.18;;
43744;SDS011;29359;53.048;8.732;2023-09-18T04:20:04;8.02;;;5.32;;
43744;SDS011;29359;53.048;8.732;2023-09-18T04:22:06;5.30;;;4.75;;
43744;SDS011;29359;53.048;8.732;2023-09-18T04:24:09;7.07;;;5.10;;
43744;SDS011;29359;53.048;8.732;2023-09-18T04:26:11;6.25;;;5.75;;
43744;SDS011;29359;53.048;8.732;2023-09-18T04:28:18;8.20;;;5.40;;
43744;SDS011;29359;53.048;8.732;2023-09-18T04:30:21;7.63;;;5.13;;
43744;SDS011;29359;53.048;8.732;2023-09-18T04:32:23;5.43;;;5.03;;
43744;SDS011;29359;53.048;8.732;2023-09-18T04:34:25;7.03;;;5.30;;
43744;SDS011;29359;53.048;8.732;2023-09-18T04:36:27;7.25;;;4.78;;
43744;SDS011;29359;53.048;8.732;2023-09-18T04:38:29;6.07;;;5.50;;
43744;SDS011;29359;53.048;8.732;2023-09-18T04:40:31;6.63;;;4.88;;
43744;SDS011;29359;53.048;8.732;2023-09-18T04:42:33;5.50;;;4.90;;
43744;SDS011;29359;53.048;8.732;2023-09-18T04:44:35;7.95;;;5.72;;
43744;SDS011;29359;53.048;8.732;2023-09-18T04:46:37;5.13;;;4.72;;
43744;SDS011;29359;53.048;8.732;2023-09-18T04:48:38;5.57;;;5.07;;
43744;SDS011;29359;53.048;8.732;2023-09-18T04:50:40;5.90;;;4.82;;
43744;SDS011;29359;53.048;8.732;2023-09-18T04:52:42;8.75;;;4.93;;
43744;SDS011;29359;53.048;8.732;2023-09-18T04:54:45;4.97;;;4.57;;
43744;SDS011;29359;53.048;8.732;2023-09-18T04:56:46;5.97;;;5.35;;
43744;SDS011;29359;53.048;8.732;2023-09-18T04:58:48;5.65;;;5.00;;
43744;SDS011;29359;53.048;8.732;2023-09-18T05:00:57;5.65;;;4.68;;
43744;SDS011;29359;53.048;8.732;2023-09-18T05:03:00;5.60;;;4.90;;
43744;SDS011;29359;53.048;8.732;2023-09-18T05:05:03;7.72;;;4.80;;
43744;SDS011;29359;53.048;8.732;2023-09-18T05:07:05;6.13;;;5.32;;
43744;SDS011;29359;53.048;8.732;2023-09-18T05:09:07;8.15;;;4.45;;
43744;SDS011;29359;53.048;8.732;2023-09-18T05:11:09;6.07;;;5.07;;
43744;SDS011;29359;53.048;8.732;2023-09-18T05:13:14;5.45;;;5.00;;
43744;SDS011;29359;53.048;8.732;2023-09-18T05:15:16;7.20;;;4.78;;
43744;SDS011;29359;53.048;8.732;2023-09-18T05:17:18;9.23;;;5.25;;
43744;SDS011;29359;53.048;8.732;2023-09-18T05:19:20;7.72;;;4.95;;
43744;SDS011;29359;53.048;8.732;2023-09-18T05:21:22;8.95;;;5.10;;
43744;SDS011;29359;53.048;8.732;2023-09-18T05:23:26;5.75;;;4.50;;
43744;SDS011;29359;53.048;8.732;2023-09-18T05:25:28;6.32;;;5.45;;
43744;SDS011;29359;53.048;8.732;2023-09-18T05:27:33;10.70;;;5.00;;
43744;SDS011;29359;53.048;8.732;2023-09-18T05:29:35;8.57;;;5.15;;
43744;SDS011;29359;53.048;8.732;2023-09-18T05:31:38;6.18;;;4.50;;
43744;SDS011;29359;53.048;8.732;2023-09-18T05:33:40;5.72;;;5.22;;
43744;SDS011;29359;53.048;8.732;2023-09-18T05:35:43;7.78;;;5.28;;
43744;SDS011;29359;53.048;8.732;2023-09-18T05:37:46;10.38;;;4.88;;
43744;SDS011;29359;53.048;8.732;2023-09-18T05:39:48;5.55;;;5.05;;
43744;SDS011;29359;53.048;8.732;2023-09-18T05:41:50;8.15;;;4.60;;
43744;SDS011;29359;53.048;8.732;2023-09-18T05:43:52;5.75;;;4.70;;
43744;SDS011;29359;53.048;8.732;2023-09-18T05:45:53;5.32;;;4.70;;
43744;SDS011;29359;53.048;8.732;2023-09-18T05:47:55;8.13;;;4.53;;
43744;SDS011;29359;53.048;8.732;2023-09-18T05:50:06;7.57;;;5.18;;
43744;SDS011;29359;53.048;8.732;2023-09-18T05:52:09;8.48;;;4.85;;
43744;SDS011;29359;53.048;8.732;2023-09-18T05:54:10;7.97;;;4.50;;
43744;SDS011;29359;53.048;8.732;2023-09-18T05:56:12;6.85;;;4.97;;
43744;SDS011;29359;53.048;8.732;2023-09-18T05:58:15;16.15;;;5.05;;
43744;SDS011;29359;53.048;8.732;2023-09-18T06:00:19;6.18;;;4.53;;
43744;SDS011;29359;53.048;8.732;2023-09-18T06:02:21;12.02;;;4.78;;
43744;SDS011;29359;53.048;8.732;2023-09-18T06:04:22;7.85;;;4.78;;
43744;SDS011;29359;53.048;8.732;2023-09-18T06:06:25;5.03;;;4.50;;
43744;SDS011;29359;53.048;8.732;2023-09-18T06:08:27;8.63;;;4.63;;
43744;SDS011;29359;53.048;8.732;2023-09-18T06:10:31;5.25;;;4.75;;
43744;SDS011;29359;53.048;8.732;2023-09-18T06:12:33;5.20;;;4.43;;
43744;SDS011;29359;53.048;8.732;2023-09-18T06:14:35;5.60;;;5.10;;
43744;SDS011;29359;53.048;8.732;2023-09-18T06:16:39;8.90;;;5.07;;
43744;SDS011;29359;53.048;8.732;2023-09-18T06:18:41;9.25;;;4.90;;
43744;SDS011;29359;53.048;8.732;2023-09-18T06:20:43;5.20;;;4.53;;
43744;SDS011;29359;53.048;8.732;2023-09-18T06:22:46;7.00;;;4.82;;
43744;SDS011;29359;53.048;8.732;2023-09-18T06:24:48;5.72;;;4.22;;
43744;SDS011;29359;53.048;8.732;2023-09-18T06:26:50;5.25;;;4.75;;
43744;SDS011;29359;53.048;8.732;2023-09-18T06:28:52;5.70;;;4.78;;
43744;SDS011;29359;53.048;8.732;2023-09-18T06:30:57;7.10;;;5.10;;
43744;SDS011;29359;53.048;8.732;2023-09-18T06:33:00;6.53;;;4.50;;
43744;SDS011;29359;53.048;8.732;2023-09-18T06:35:03;10.10;;;5.07;;
43744;SDS011;29359;53.048;8.732;2023-09-18T06:37:04;7.20;;;5.03;;
43744;SDS011;29359;53.048;8.732;2023-09-18T06:39:09;12.82;;;4.90;;
43744;SDS011;29359;53.048;8.732;2023-09-18T06:41:10;6.32;;;4.55;;
43744;SDS011;29359;53.048;8.732;2023-09-18T06:43:12;4.90;;;4.50;;
43744;SDS011;29359;53.048;8.732;2023-09-18T06:45:14;4.95;;;4.50;;
43744;SDS011;29359;53.048;8.732;2023-09-18T06:47:16;9.32;;;4.68;;
43744;SDS011;29359;53.048;8.732;2023-09-18T06:49:17;6.63;;;4.78;;
43744;SDS011;29359;53.048;8.732;2023-09-18T06:51:21;5.80;;;4.72;;
43744;SDS011;29359;53.048;8.732;2023-09-18T06:53:43;5.63;;;4.63;;
43744;SDS011;29359;53.048;8.732;2023-09-18T06:55:45;6.00;;;4.90;;
43744;SDS011;29359;53.048;8.732;2023-09-18T06:57:47;5.93;;;5.05;;
43744;SDS011;29359;53.048;8.732;2023-09-18T06:59:50;5.97;;;4.90;;
43744;SDS011;29359;53.048;8.732;2023-09-18T07:01:52;5.53;;;5.03;;
43744;SDS011;29359;53.048;8.732;2023-09-18T07:03:54;5.63;;;4.97;;
43744;SDS011;29359;53.048;8.732;2023-09-18T07:05:57;8.43;;;5.20;;
43744;SDS011;29359;53.048;8.732;2023-09-18T07:07:59;7.82;;;4.75;;
43744;SDS011;29359;53.048;8.732;2023-09-18T07:10:01;6.72;;;4.70;;
43744;SDS011;29359;53.048;8.732;2023-09-18T07:12:06;6.88;;;4.63;;
43744;SDS011;29359;53.048;8.732;2023-09-18T07:14:08;5.68;;;5.00;;
43744;SDS011;29359;53.048;8.732;2023-09-18T07:16:10;4.80;;;4.30;;
43744;SDS011;29359;53.048;8.732;2023-09-18T07:18:12;10.10;;;4.65;;
43744;SDS011;29359;53.048;8.732;2023-09-18T07:20:16;8.07;;;4.68;;
43744;SDS011;29359;53.048;8.732;2023-09-18T07:22:20;6.03;;;4.50;;
43744;SDS011;29359;53.048;8.732;2023-09-18T07:24:22;5.78;;;5.03;;
43744;SDS011;29359;53.048;8.732;2023-09-18T07:26:23;7.07;;;4.53;;
43744;SDS011;29359;53.048;8.732;2023-09-18T07:28:25;13.90;;;4.97;;
43744;SDS011;29359;53.048;8.732;2023-09-18T07:30:28;5.10;;;4.65;;
43744;SDS011;29359;53.048;8.732;2023-09-18T07:32:30;6.28;;;4.88;;
43744;SDS011;29359;53.048;8.732;2023-09-18T07:34:38;8.30;;;4.68;;
43744;SDS011;29359;53.048;8.732;2023-09-18T07:36:41;9.20;;;4.95;;
43744;SDS011;29359;53.048;8.732;2023-09-18T07:38:43;5.35;;;4.95;;
43744;SDS011;29359;53.048;8.732;2023-09-18T07:40:45;6.50;;;4.45;;
43744;SDS011;29359;53.048;8.732;2023-09-18T07:42:48;5.45;;;4.55;;
43744;SDS011;29359;53.048;8.732;2023-09-18T07:44:50;6.70;;;4.93;;
43744;SDS011;29359;53.048;8.732;2023-09-18T07:46:52;6.85;;;4.43;;
43744;SDS011;29359;53.048;8.732;2023-09-18T07:48:55;11.40;;;4.68;;
43744;SDS011;29359;53.048;8.732;2023-09-18T07:50:57;5.03;;;4.63;;
43744;SDS011;29359;53.048;8.732;2023-09-18T07:52:59;5.07;;;4.20;;
43744;SDS011;29359;53.048;8.732;2023-09-18T07:55:02;4.55;;;4.20;;
43744;SDS011;29359;53.048;8.732;2023-09-18T07:57:04;10.15;;;4.18;;
43744;SDS011;29359;53.048;8.732;2023-09-18T07:59:10;5.75;;;4.10;;
43744;SDS011;29359;53.048;8.732;2023-09-18T08:01:12;8.20;;;4.50;;
43744;SDS011;29359;53.048;8.732;2023-09-18T08:03:15;5.47;;;4.65;;
43744;SDS011;29359;53.048;8.732;2023-09-18T08:05:17;8.32;;;4.28;;
43744;SDS011;29359;53.048;8.732;2023-09-18T08:07:19;8.18;;;4.72;;
43744;SDS011;29359;53.048;8.732;2023-09-18T08:09:21;8.60;;;4.30;;
43744;SDS011;29359;53.048;8.732;2023-09-18T08:11:23;4.85;;;4.10;;
43744;SDS011;29359;53.048;8.732;2023-09-18T08:13:25;8.55;;;3.88;;
43744;SDS011;29359;53.048;8.732;2023-09-18T08:15:27;7.07;;;3.78;;
43744;SDS011;29359;53.048;8.732;2023-09-18T08:17:30;6.80;;;4.18;;
43744;SDS011;29359;53.048;8.732;2023-09-18T08:19:33;3.97;;;3.58;;
43744;SDS011;29359;53.048;8.732;2023-09-18T08:21:34;6.80;;;3.13;;
43744;SDS011;29359;53.048;8.732;2023-09-18T08:23:36;6.90;;;3.70;;
43744;SDS011;29359;53.048;8.732;2023-09-18T08:25:39;4.57;;;4.03;;
43744;SDS011;29359;53.048;8.732;2023-09-18T08:27:42;3.85;;;3.55;;
43744;SDS011;29359;53.048;8.732;2023-09-18T08:29:46;7.55;;;3.63;;
43744;SDS011;29359;53.048;8.732;2023-09-18T08:31:48;7.28;;;3.13;;
43744;SDS011;29359;53.048;8.732;2023-09-18T08:33:51;4.25;;;3.72;;
43744;SDS011;29359;53.048;8.732;2023-09-18T08:35:53;4.93;;;3.63;;
43744;SDS011;29359;53.048;8.732;2023-09-18T08:37:55;4.00;;;3.58;;
43744;SDS011;29359;53.048;8.732;2023-09-18T08:39:58;5.70;;;3.28;;
43744;SDS011;29359;53.048;8.732;2023-09-18T08:42:04;5.30;;;3.45;;
43744;SDS011;29359;53.048;8.732;2023-09-18T08:44:08;6.13;;;3.38;;
43744;SDS011;29359;53.048;8.732;2023-09-18T08:46:11;6.75;;;3.30;;
43744;SDS011;29359;53.048;8.732;2023-09-18T08:48:14;5.88;;;3.70;;
43744;SDS011;29359;53.048;8.732;2023-09-18T08:50:16;6.03;;;3.40;;
43744;SDS011;29359;53.048;8.732;2023-09-18T08:52:18;8.50;;;3.15;;
43744;SDS011;29359;53.048;8.732;2023-09-18T08:54:21;3.13;;;2.92;;
43744;SDS011;29359;53.048;8.732;2023-09-18T08:56:25;10.45;;;3.08;;
43744;SDS011;29359;53.048;8.732;2023-09-18T08:58:32;5.50;;;3.15;;
43744;SDS011;29359;53.048;8.732;2023-09-18T09:00:37;5.07;;;2.60;;
43744;SDS011;29359;53.048;8.732;2023-09-18T09:02:39;6.22;;;2.80;;
43744;SDS011;29359;53.048;8.732;2023-09-18T09:04:41;8.23;;;2.70;;
43744;SDS011;29359;53.048;8.732;2023-09-18T09:06:43;7.07;;;3.03;;
43744;SDS011;29359;53.048;8.732;2023-09-18T09:08:45;5.32;;;2.70;;
43744;SDS011;29359;53.048;8.732;2023-09-18T09:10:48;8.00;;;2.90;;
43744;SDS011;29359;53.048;8.732;2023-09-18T09:15:03;6.53;;;3.20;;
43744;SDS011;29359;53.048;8.732;2023-09-18T09:17:05;4.68;;;2.67;;
43744;SDS011;29359;53.048;8.732;2023-09-18T09:19:07;11.10;;;3.15;;
43744;SDS011;29359;53.048;8.732;2023-09-18T09:21:09;12.52;;;3.50;;
43744;SDS011;29359;53.048;8.732;2023-09-18T09:23:12;11.93;;;3.00;;
43744;SDS011;29359;53.048;8.732;2023-09-18T09:27:21;6.90;;;3.15;;
43744;SDS011;29359;53.048;8.732;2023-09-18T09:29:23;11.98;;;3.00;;
43744;SDS011;29359;53.048;8.732;2023-09-18T09:31:28;10.25;;;2.50;;
43744;SDS011;29359;53.048;8.732;2023-09-18T09:33:32;12.30;;;2.53;;
43744;SDS011;29359;53.048;8.732;2023-09-18T09:35:35;12.68;;;3.28;;
43744;SDS011;29359;53.048;8.732;2023-09-18T09:37:37;4.90;;;2.53;;
43744;SDS011;29359;53.048;8.732;2023-09-18T09:39:47;9.52;;;2.58;;
43744;SDS011;29359;53.048;8.732;2023-09-18T09:41:51;6.47;;;2.65;;
43744;SDS011;29359;53.048;8.732;2023-09-18T09:43:53;11.48;;;2.70;;
43744;SDS011;29359;53.048;8.732;2023-09-18T09:45:59;11.68;;;2.78;;
43744;SDS011;29359;53.048;8.732;2023-09-18T09:48:02;4.68;;;2.28;;
43744;SDS011;29359;53.048;8.732;2023-09-18T09:50:07;7.25;;;2.10;;
43744;SDS011;29359;53.048;8.732;2023-09-18T09:52:18;5.90;;;2.40;;
43744;SDS011;29359;53.048;8.732;2023-09-18T09:54:32;9.18;;;2.20;;
43744;SDS011;29359;53.048;8.732;2023-09-18T09:59:01;11.98;;;2.80;;
43744;SDS011;29359;53.048;8.732;2023-09-18T10:01:06;11.63;;;2.22;;
43744;SDS011;29359;53.048;8.732;2023-09-18T10:03:17;7.18;;;2.72;;
43744;SDS011;29359;53.048;8.732;2023-09-18T10:05:20;9.50;;;2.55;;
43744;SDS011;29359;53.048;8.732;2023-09-18T10:07:22;16.25;;;2.83;;
43744;SDS011;29359;53.048;8.732;2023-09-18T10:09:25;12.75;;;3.08;;
43744;SDS011;29359;53.048;8.732;2023-09-18T10:11:30;10.40;;;2.58;;
43744;SDS011;29359;53.048;8.732;2023-09-18T10:16:01;7.97;;;2.38;;
43744;SDS011;29359;53.048;8.732;2023-09-18T10:18:18;13.32;;;3.08;;
43744;SDS011;29359;53.048;8.732;2023-09-18T10:20:28;12.45;;;2.70;;
43744;SDS011;29359;53.048;8.732;2023-09-18T10:22:32;10.23;;;2.28;;
43744;SDS011;29359;53.048;8.732;2023-09-18T10:24:44;7.22;;;2.28;;
43744;SDS011;29359;53.048;8.732;2023-09-18T10:29:04;9.30;;;2.20;;
43744;SDS011;29359;53.048;8.732;2023-09-18T10:31:10;6.03;;;2.05;;
43744;SDS011;29359;53.048;8.732;2023-09-18T10:33:14;14.70;;;2.70;;
43744;SDS011;29359;53.048;8.732;2023-09-18T10:35:16;13.35;;;2.42;;
43744;SDS011;29359;53.048;8.732;2023-09-18T10:37:19;8.38;;;2.35;;
43744;SDS011;29359;53.048;8.732;2023-09-18T10:39:23;12.70;;;2.13;;
43744;SDS011;29359;53.048;8.732;2023-09-18T10:41:27;10.15;;;2.35;;
43744;SDS011;29359;53.048;8.732;2023-09-18T10:43:29;8.10;;;2.33;;
43744;SDS011;29359;53.048;8.732;2023-09-18T10:45:31;7.95;;;2.10;;
43744;SDS011;29359;53.048;8.732;2023-09-18T10:47:33;5.00;;;2.10;;
43744;SDS011;29359;53.048;8.732;2023-09-18T10:49:36;9.02;;;2.30;;
43744;SDS011;29359;53.048;8.732;2023-09-18T10:51:38;7.40;;;2.45;;
43744;SDS011;29359;53.048;8.732;2023-09-18T10:53:43;10.07;;;2.33;;
43744;SDS011;29359;53.048;8.732;2023-09-18T10:55:45;5.57;;;2.20;;
43744;SDS011;29359;53.048;8.732;2023-09-18T10:57:54;8.85;;;1.90;;
43744;SDS011;29359;53.048;8.732;2023-09-18T10:59:57;5.70;;;2.03;;
43744;SDS011;29359;53.048;8.732;2023-09-18T11:02:03;5.13;;;2.00;;
43744;SDS011;29359;53.048;8.732;2023-09-18T11:04:08;8.25;;;2.40;;
43744;SDS011;29359;53.048;8.732;2023-09-18T11:06:12;11.10;;;2.35;;
43744;SDS011;29359;53.048;8.732;2023-09-18T11:08:34;8.35;;;1.77;;
43744;SDS011;29359;53.048;8.732;2023-09-18T11:13:06;6.57;;;2.03;;
43744;SDS011;29359;53.048;8.732;2023-09-18T11:15:09;4.60;;;1.80;;
43744;SDS011;29359;53.048;8.732;2023-09-18T11:17:31;13.30;;;2.20;;
43744;SDS011;29359;53.048;8.732;2023-09-18T11:19:35;4.80;;;1.88;;
43744;SDS011;29359;53.048;8.732;2023-09-18T11:21:43;8.07;;;1.83;;
43744;SDS011;29359;53.048;8.732;2023-09-18T11:23:47;11.60;;;2.45;;
43744;SDS011;29359;53.048;8.732;2023-09-18T11:26:03;6.78;;;1.98;;
43744;SDS011;29359;53.048;8.732;2023-09-18T11:28:13;13.70;;;2.03;;
43744;SDS011;29359;53.048;8.732;2023-09-18T11:30:25;5.72;;;1.75;;
43744;SDS011;29359;53.048;8.732;2023-09-18T11:32:39;3.92;;;1.65;;
43744;SDS011;29359;53.048;8.732;2023-09-18T11:34:42;7.63;;;1.98;;
43744;SDS011;29359;53.048;8.732;2023-09-18T11:36:44;4.53;;;1.65;;
43744;SDS011;29359;53.048;8.732;2023-09-18T11:38:53;11.27;;;2.42;;
43744;SDS011;29359;53.048;8.732;2023-09-18T11:41:00;4.93;;;1.98;;
43744;SDS011;29359;53.048;8.732;2023-09-18T11:45:25;6.57;;;1.40;;
43744;SDS011;29359;53.048;8.732;2023-09-18T11:47:27;9.70;;;1.77;;
43744;SDS011;29359;53.048;8.732;2023-09-18T11:49:30;3.83;;;1.40;;
43744;SDS011;29359;53.048;8.732;2023-09-18T11:51:33;2.55;;;1.48;;
43744;SDS011;29359;53.048;8.732;2023-09-18T11:53:36;3.67;;;1.70;;
43744;SDS011;29359;53.048;8.732;2023-09-18T11:55:42;5.47;;;1.60;;
43744;SDS011;29359;53.048;8.732;2023-09-18T11:57:44;6.18;;;1.67;;
43744;SDS011;29359;53.048;8.732;2023-09-18T11:59:48;5.00;;;1.50;;
43744;SDS011;29359;53.048;8.732;2023-09-18T12:01:52;5.13;;;1.92;;
43744;SDS011;29359;53.048;8.732;2023-09-18T12:04:07;4.55;;;1.38;;
43744;SDS011;29359;53.048;8.732;2023-09-18T12:06:10;5.57;;;1.63;;
43744;SDS011;29359;53.048;8.732;2023-09-18T12:08:15;5.53;;;1.42;;
43744;SDS011;29359;53.048;8.732;2023-09-18T12:10:18;6.30;;;1.85;;
43744;SDS011;29359;53.048;8.732;2023-09-18T12:12:24;4.50;;;1.20;;
43744;SDS011;29359;53.048;8.732;2023-09-18T12:14:27;4.85;;;1.40;;
43744;SDS011;29359;53.048;8.732;2023-09-18T12:16:38;6.18;;;1.88;;
43744;SDS011;29359;53.048;8.732;2023-09-18T12:18:46;4.15;;;1.40;;
43744;SDS011;29359;53.048;8.732;2023-09-18T12:20:50;5.10;;;1.20;;
43744;SDS011;29359;53.048;8.732;2023-09-18T12:22:52;8.35;;;1.20;;
43744;SDS011;29359;53.048;8.732;2023-09-18T12:25:10;3.65;;;1.30;;
43744;SDS011;29359;53.048;8.732;2023-09-18T12:27:17;3.75;;;1.38;;
43744;SDS011;29359;53.048;8.732;2023-09-18T12:29:19;6.43;;;1.50;;
43744;SDS011;29359;53.048;8.732;2023-09-18T12:31:22;5.40;;;1.35;;
43744;SDS011;29359;53.048;8.732;2023-09-18T12:33:24;5.72;;;1.10;;
43744;SDS011;29359;53.048;8.732;2023-09-18T12:35:27;2.42;;;1.30;;
43744;SDS011;29359;53.048;8.732;2023-09-18T12:37:38;3.92;;;1.23;;
43744;SDS011;29359;53.048;8.732;2023-09-18T12:39:42;4.28;;;1.10;;